sensor_id;sensor_type;location;lat;lon;timestamp;pressure;altitude;pressure_sealevel;temperature;humidity
71768;BME280;59604;52.138;5.446;2022-11-15T00:00:51;101054.75;;;5.71;100.00
71768;BME280;59604;52.138;5.446;2022-11-15T00:03:20;101057.38;;;5.71;100.00
71768;BME280;59604;52.138;5.446;2022-11-15T00:05:48;101046.91;;;5.71;100.00
71768;BME280;59604;52.138;5.446;2022-11-15T00:08:15;101055.56;;;5.72;100.00
71768;BME280;59604;52.138;5.446;2022-11-15T00:10:42;101059.00;;;5.72;100.00
71768;BME280;59604;52.138;5.446;2022-11-15T00:13:11;101063.13;;;5.75;100.00
71768;BME280;59604;52.138;5.446;2022-11-15T00:15:39;101054.47;;;5.74;100.00
71768;BME280;59604;52.138;5.446;2022-11-15T00:18:10;101059.69;;;5.74;100.00
71768;BME280;59604;52.138;5.446;2022-11-15T00:20:38;101058.41;;;5.78;100.00
71768;BME280;59604;52.138;5.446;2022-11-15T00:23:04;101043.38;;;5.80;100.00
71768;BME280;59604;52.138;5.446;2022-11-15T00:25:31;101046.81;;;5.81;100.00
71768;BME280;59604;52.138;5.446;2022-11-15T00:27:59;101040.47;;;5.84;100.00
71768;BME280;59604;52.138;5.446;2022-11-15T00:30:26;101036.06;;;5.84;100.00
71768;BME280;59604;52.138;5.446;2022-11-15T00:32:53;101034.94;;;5.87;100.00
71768;BME280;59604;52.138;5.446;2022-11-15T00:35:20;101029.53;;;5.88;100.00
71768;BME280;59604;52.138;5.446;2022-11-15T00:37:47;101042.47;;;5.90;100.00
71768;BME280;59604;52.138;5.446;2022-11-15T00:40:14;101044.13;;;5.91;100.00
71768;BME280;59604;52.138;5.446;2022-11-15T00:42:41;101046.47;;;5.94;100.00
71768;BME280;59604;52.138;5.446;2022-11-15T00:45:08;101040.25;;;5.95;100.00
71768;BME280;59604;52.138;5.446;2022-11-15T00:47:35;101049.72;;;5.96;100.00
71768;BME280;59604;52.138;5.446;2022-11-15T00:50:02;101046.16;;;5.97;100.00
71768;BME280;59604;52.138;5.446;2022-11-15T00:52:29;101040.09;;;5.96;100.00
71768;BME280;59604;52.138;5.446;2022-11-15T00:54:55;101043.22;;;6.00;100.00
71768;BME280;59604;52.138;5.446;2022-11-15T00:57:22;101030.00;;;6.01;100.00
71768;BME280;59604;52.138;5.446;2022-11-15T00:59:48;101023.78;;;6.02;100.00
71768;BME280;59604;52.138;5.446;2022-11-15T01:02:15;101020.06;;;6.05;100.00
71768;BME280;59604;52.138;5.446;2022-11-15T01:04:41;101019.09;;;6.06;100.00
71768;BME280;59604;52.138;5.446;2022-11-15T01:07:08;101016.16;;;6.09;100.00
71768;BME280;59604;52.138;5.446;2022-11-15T01:09:34;101008.16;;;6.11;100.00
71768;BME280;59604;52.138;5.446;2022-11-15T01:12:01;101002.78;;;6.12;100.00
71768;BME280;59604;52.138;5.446;2022-11-15T01:14:27;101008.66;;;6.14;100.00
71768;BME280;59604;52.138;5.446;2022-11-15T01:16:54;101009.47;;;6.15;100.00
71768;BME280;59604;52.138;5.446;2022-11-15T01:19:21;101013.75;;;6.16;100.00
71768;BME280;59604;52.138;5.446;2022-11-15T01:21:50;101002.31;;;6.17;100.00
71768;BME280;59604;52.138;5.446;2022-11-15T01:24:17;100994.31;;;6.18;100.00
71768;BME280;59604;52.138;5.446;2022-11-15T01:26:44;100998.28;;;6.22;100.00
71768;BME280;59604;52.138;5.446;2022-11-15T01:29:10;100996.31;;;6.24;100.00
71768;BME280;59604;52.138;5.446;2022-11-15T01:31:37;101001.41;;;6.26;100.00
71768;BME280;59604;52.138;5.446;2022-11-15T01:34:04;100996.16;;;6.26;100.00
71768;BME280;59604;52.138;5.446;2022-11-15T01:36:31;100988.97;;;6.28;100.00
71768;BME280;59604;52.138;5.446;2022-11-15T01:38:58;100986.69;;;6.33;100.00
71768;BME280;59604;52.138;5.446;2022-11-15T01:41:28;100983.78;;;6.36;100.00
71768;BME280;59604;52.138;5.446;2022-11-15T01:43:57;100981.53;;;6.41;100.00
71768;BME280;59604;52.138;5.446;2022-11-15T01:46:33;100990.19;;;6.42;100.00
71768;BME280;59604;52.138;5.446;2022-11-15T01:49:12;100988.38;;;6.42;100.00
71768;BME280;59604;52.138;5.446;2022-11-15T01:51:40;100988.91;;;6.46;100.00
71768;BME280;59604;52.138;5.446;2022-11-15T01:54:13;100984.31;;;6.48;100.00
71768;BME280;59604;52.138;5.446;2022-11-15T01:56:46;100978.75;;;6.51;100.00
71768;BME280;59604;52.138;5.446;2022-11-15T01:59:14;100981.38;;;6.51;100.00
71768;BME280;59604;52.138;5.446;2022-11-15T02:01:41;100972.41;;;6.53;100.00
71768;BME280;59604;52.138;5.446;2022-11-15T02:04:15;100979.13;;;6.56;100.00
71768;BME280;59604;52.138;5.446;2022-11-15T02:06:43;100977.97;;;6.59;100.00
71768;BME280;59604;52.138;5.446;2022-11-15T02:09:10;100978.47;;;6.62;100.00
71768;BME280;59604;52.138;5.446;2022-11-15T02:11:38;100976.69;;;6.63;100.00
71768;BME280;59604;52.138;5.446;2022-11-15T02:14:05;100965.91;;;6.66;100.00
71768;BME280;59604;52.138;5.446;2022-11-15T02:24:58;100949.56;;;6.72;100.00
71768;BME280;59604;52.138;5.446;2022-11-15T02:33:03;100934.69;;;6.81;100.00
71768;BME280;59604;52.138;5.446;2022-11-15T02:41:06;100918.66;;;6.92;100.00
71768;BME280;59604;52.138;5.446;2022-11-15T02:44:15;100919.16;;;6.95;100.00
71768;BME280;59604;52.138;5.446;2022-11-15T02:46:57;100913.59;;;6.98;100.00
71768;BME280;59604;52.138;5.446;2022-11-15T02:49:51;100917.84;;;6.99;100.00
71768;BME280;59604;52.138;5.446;2022-11-15T02:52:23;100913.78;;;7.05;100.00
71768;BME280;59604;52.138;5.446;2022-11-15T02:54:56;100913.47;;;7.08;100.00
71768;BME280;59604;52.138;5.446;2022-11-15T02:58:15;100903.97;;;7.07;100.00
71768;BME280;59604;52.138;5.446;2022-11-15T03:00:19;100894.81;;;7.11;100.00
71768;BME280;59604;52.138;5.446;2022-11-15T03:08:38;100884.63;;;7.24;100.00
71768;BME280;59604;52.138;5.446;2022-11-15T03:11:15;100883.81;;;7.24;100.00
71768;BME280;59604;52.138;5.446;2022-11-15T03:13:59;100896.59;;;7.27;100.00
71768;BME280;59604;52.138;5.446;2022-11-15T03:19:12;100888.56;;;7.29;100.00
71768;BME280;59604;52.138;5.446;2022-11-15T03:21:40;100885.78;;;7.30;100.00
71768;BME280;59604;52.138;5.446;2022-11-15T03:24:08;100894.28;;;7.32;100.00
71768;BME280;59604;52.138;5.446;2022-11-15T03:26:36;100889.38;;;7.37;100.00
71768;BME280;59604;52.138;5.446;2022-11-15T03:29:16;100901.66;;;7.45;100.00
71768;BME280;59604;52.138;5.446;2022-11-15T03:31:46;100897.91;;;7.47;100.00
71768;BME280;59604;52.138;5.446;2022-11-15T03:34:26;100901.16;;;7.49;100.00
71768;BME280;59604;52.138;5.446;2022-11-15T03:36:54;100893.44;;;7.56;100.00
71768;BME280;59604;52.138;5.446;2022-11-15T03:39:22;100902.63;;;7.60;100.00
71768;BME280;59604;52.138;5.446;2022-11-15T03:42:01;100894.09;;;7.66;100.00
71768;BME280;59604;52.138;5.446;2022-11-15T03:44:49;100893.91;;;7.68;100.00
71768;BME280;59604;52.138;5.446;2022-11-15T03:49:57;100889.16;;;7.71;100.00
71768;BME280;59604;52.138;5.446;2022-11-15T03:52:25;100904.38;;;7.76;100.00
71768;BME280;59604;52.138;5.446;2022-11-15T03:54:55;100900.28;;;7.82;100.00
71768;BME280;59604;52.138;5.446;2022-11-15T03:57:22;100903.91;;;7.81;100.00
71768;BME280;59604;52.138;5.446;2022-11-15T03:59:49;100899.94;;;7.85;100.00
71768;BME280;59604;52.138;5.446;2022-11-15T04:02:15;100886.47;;;7.88;100.00
71768;BME280;59604;52.138;5.446;2022-11-15T04:04:42;100894.34;;;7.88;100.00
71768;BME280;59604;52.138;5.446;2022-11-15T04:07:08;100890.25;;;7.93;100.00
71768;BME280;59604;52.138;5.446;2022-11-15T04:09:35;100896.97;;;7.96;100.00
71768;BME280;59604;52.138;5.446;2022-11-15T04:12:22;100888.41;;;8.02;100.00
71768;BME280;59604;52.138;5.446;2022-11-15T04:14:58;100890.88;;;8.04;100.00
71768;BME280;59604;52.138;5.446;2022-11-15T04:17:45;100896.59;;;8.07;100.00
71768;BME280;59604;52.138;5.446;2022-11-15T04:23:11;100895.78;;;8.07;100.00
71768;BME280;59604;52.138;5.446;2022-11-15T04:26:00;100886.44;;;8.04;100.00
71768;BME280;59604;52.138;5.446;2022-11-15T04:28:27;100891.00;;;8.10;100.00
71768;BME280;59604;52.138;5.446;2022-11-15T04:30:54;100881.00;;;8.14;100.00
71768;BME280;59604;52.138;5.446;2022-11-15T04:33:21;100876.91;;;8.11;100.00
71768;BME280;59604;52.138;5.446;2022-11-15T04:35:48;100877.03;;;8.18;100.00
71768;BME280;59604;52.138;5.446;2022-11-15T04:38:34;100873.94;;;8.14;100.00
71768;BME280;59604;52.138;5.446;2022-11-15T04:41:01;100882.91;;;8.20;100.00
71768;BME280;59604;52.138;5.446;2022-11-15T04:43:28;100878.34;;;8.22;100.00
71768;BME280;59604;52.138;5.446;2022-11-15T04:45:55;100870.63;;;8.20;100.00
71768;BME280;59604;52.138;5.446;2022-11-15T04:48:22;100875.00;;;8.28;100.00
71768;BME280;59604;52.138;5.446;2022-11-15T04:50:48;100870.59;;;8.29;100.00
71768;BME280;59604;52.138;5.446;2022-11-15T04:53:15;100876.66;;;8.29;100.00
71768;BME280;59604;52.138;5.446;2022-11-15T04:55:45;100872.38;;;8.28;100.00
71768;BME280;59604;52.138;5.446;2022-11-15T04:58:11;100874.66;;;8.31;100.00
71768;BME280;59604;52.138;5.446;2022-11-15T05:00:38;100869.59;;;8.30;100.00
71768;BME280;59604;52.138;5.446;2022-11-15T05:03:06;100877.47;;;8.30;100.00
71768;BME280;59604;52.138;5.446;2022-11-15T05:05:51;100869.41;;;8.31;100.00
71768;BME280;59604;52.138;5.446;2022-11-15T05:08:17;100874.84;;;8.30;100.00
71768;BME280;59604;52.138;5.446;2022-11-15T05:10:44;100878.94;;;8.32;100.00
71768;BME280;59604;52.138;5.446;2022-11-15T05:13:11;100871.69;;;8.34;100.00
71768;BME280;59604;52.138;5.446;2022-11-15T05:15:37;100878.94;;;8.32;100.00
71768;BME280;59604;52.138;5.446;2022-11-15T05:18:04;100874.50;;;8.33;100.00
71768;BME280;59604;52.138;5.446;2022-11-15T05:20:30;100885.63;;;8.35;100.00
71768;BME280;59604;52.138;5.446;2022-11-15T05:22:57;100886.28;;;8.37;100.00
71768;BME280;59604;52.138;5.446;2022-11-15T05:25:24;100880.56;;;8.33;100.00
71768;BME280;59604;52.138;5.446;2022-11-15T05:27:50;100889.25;;;8.34;100.00
71768;BME280;59604;52.138;5.446;2022-11-15T05:30:17;100880.72;;;8.32;100.00
71768;BME280;59604;52.138;5.446;2022-11-15T05:32:44;100891.41;;;8.30;100.00
71768;BME280;59604;52.138;5.446;2022-11-15T05:35:20;100890.06;;;8.34;100.00
71768;BME280;59604;52.138;5.446;2022-11-15T05:37:48;100890.88;;;8.35;100.00
71768;BME280;59604;52.138;5.446;2022-11-15T05:40:15;100892.53;;;8.36;100.00
71768;BME280;59604;52.138;5.446;2022-11-15T05:42:41;100889.25;;;8.42;100.00
71768;BME280;59604;52.138;5.446;2022-11-15T05:45:08;100897.78;;;8.44;100.00
71768;BME280;59604;52.138;5.446;2022-11-15T05:47:36;100893.34;;;8.44;100.00
71768;BME280;59604;52.138;5.446;2022-11-15T05:50:04;100897.94;;;8.42;100.00
71768;BME280;59604;52.138;5.446;2022-11-15T05:52:34;100894.81;;;8.47;100.00
71768;BME280;59604;52.138;5.446;2022-11-15T05:55:05;100900.34;;;8.52;100.00
71768;BME280;59604;52.138;5.446;2022-11-15T05:57:32;100896.19;;;8.58;100.00
71768;BME280;59604;52.138;5.446;2022-11-15T05:59:59;100891.31;;;8.55;100.00
71768;BME280;59604;52.138;5.446;2022-11-15T06:02:26;100902.91;;;8.60;100.00
71768;BME280;59604;52.138;5.446;2022-11-15T06:04:52;100892.91;;;8.64;100.00
71768;BME280;59604;52.138;5.446;2022-11-15T06:07:19;100905.69;;;8.67;100.00
71768;BME280;59604;52.138;5.446;2022-11-15T06:09:46;100909.41;;;8.73;100.00
71768;BME280;59604;52.138;5.446;2022-11-15T06:12:13;100911.69;;;8.76;100.00
71768;BME280;59604;52.138;5.446;2022-11-15T06:14:39;100909.06;;;8.76;100.00
71768;BME280;59604;52.138;5.446;2022-11-15T06:17:06;100909.53;;;8.79;100.00
71768;BME280;59604;52.138;5.446;2022-11-15T06:19:36;100901.31;;;8.82;100.00
71768;BME280;59604;52.138;5.446;2022-11-15T06:22:03;100908.84;;;8.85;100.00
71768;BME280;59604;52.138;5.446;2022-11-15T06:24:29;100915.38;;;8.89;100.00
71768;BME280;59604;52.138;5.446;2022-11-15T06:26:56;100917.19;;;8.89;100.00
71768;BME280;59604;52.138;5.446;2022-11-15T06:29:23;100924.41;;;8.87;100.00
71768;BME280;59604;52.138;5.446;2022-11-15T06:31:50;100920.16;;;8.86;100.00
71768;BME280;59604;52.138;5.446;2022-11-15T06:34:17;100925.88;;;8.89;100.00
71768;BME280;59604;52.138;5.446;2022-11-15T06:36:43;100929.31;;;8.90;100.00
71768;BME280;59604;52.138;5.446;2022-11-15T06:39:10;100918.19;;;8.88;100.00
71768;BME280;59604;52.138;5.446;2022-11-15T06:41:36;100923.91;;;8.91;100.00
71768;BME280;59604;52.138;5.446;2022-11-15T06:44:03;100920.91;;;8.94;100.00
71768;BME280;59604;52.138;5.446;2022-11-15T06:46:29;100914.69;;;8.95;100.00
71768;BME280;59604;52.138;5.446;2022-11-15T06:48:56;100914.69;;;8.95;100.00
71768;BME280;59604;52.138;5.446;2022-11-15T06:51:22;100913.22;;;8.93;100.00
71768;BME280;59604;52.138;5.446;2022-11-15T06:53:49;100924.06;;;8.90;100.00
71768;BME280;59604;52.138;5.446;2022-11-15T06:56:16;100922.09;;;8.92;100.00
71768;BME280;59604;52.138;5.446;2022-11-15T06:58:42;100925.06;;;8.89;100.00
71768;BME280;59604;52.138;5.446;2022-11-15T07:01:10;100938.56;;;8.86;100.00
71768;BME280;59604;52.138;5.446;2022-11-15T07:03:39;100941.84;;;8.88;100.00
71768;BME280;59604;52.138;5.446;2022-11-15T07:06:06;100938.03;;;8.90;100.00
71768;BME280;59604;52.138;5.446;2022-11-15T07:08:34;100942.59;;;8.97;100.00
71768;BME280;59604;52.138;5.446;2022-11-15T07:11:02;100940.97;;;8.95;100.00
71768;BME280;59604;52.138;5.446;2022-11-15T07:13:30;100943.59;;;8.95;100.00
71768;BME280;59604;52.138;5.446;2022-11-15T07:16:06;100940.63;;;8.99;100.00
71768;BME280;59604;52.138;5.446;2022-11-15T07:18:35;100942.88;;;9.02;100.00
71768;BME280;59604;52.138;5.446;2022-11-15T07:21:07;100946.16;;;9.04;100.00
71768;BME280;59604;52.138;5.446;2022-11-15T07:23:36;100948.44;;;9.07;100.00
71768;BME280;59604;52.138;5.446;2022-11-15T07:26:04;100951.53;;;9.10;100.00
71768;BME280;59604;52.138;5.446;2022-11-15T07:28:31;100950.72;;;9.10;100.00
71768;BME280;59604;52.138;5.446;2022-11-15T07:30:57;100944.13;;;9.14;100.00
71768;BME280;59604;52.138;5.446;2022-11-15T07:33:24;100943.13;;;9.15;100.00
71768;BME280;59604;52.138;5.446;2022-11-15T07:35:50;100951.81;;;9.15;100.00
71768;BME280;59604;52.138;5.446;2022-11-15T07:38:17;100946.56;;;9.15;100.00
71768;BME280;59604;52.138;5.446;2022-11-15T07:40:55;100952.81;;;9.14;100.00
71768;BME280;59604;52.138;5.446;2022-11-15T07:43:22;100950.19;;;9.14;100.00
71768;BME280;59604;52.138;5.446;2022-11-15T07:45:48;100954.75;;;9.21;100.00
71768;BME280;59604;52.138;5.446;2022-11-15T07:48:21;100946.88;;;9.21;100.00
71768;BME280;59604;52.138;5.446;2022-11-15T07:50:48;100943.88;;;9.24;100.00
71768;BME280;59604;52.138;5.446;2022-11-15T07:53:15;100941.88;;;9.26;100.00
71768;BME280;59604;52.138;5.446;2022-11-15T07:55:41;100941.53;;;9.29;100.00
71768;BME280;59604;52.138;5.446;2022-11-15T07:58:10;100938.56;;;9.32;100.00
71768;BME280;59604;52.138;5.446;2022-11-15T08:00:38;100935.09;;;9.31;100.00
71768;BME280;59604;52.138;5.446;2022-11-15T08:05:33;100937.78;;;9.23;100.00
71768;BME280;59604;52.138;5.446;2022-11-15T08:07:59;100929.56;;;9.26;100.00
71768;BME280;59604;52.138;5.446;2022-11-15T08:10:27;100920.31;;;9.30;100.00
71768;BME280;59604;52.138;5.446;2022-11-15T08:13:02;100928.88;;;9.32;100.00
71768;BME280;59604;52.138;5.446;2022-11-15T08:15:30;100929.50;;;9.34;100.00
71768;BME280;59604;52.138;5.446;2022-11-15T08:17:58;100926.50;;;9.37;100.00
71768;BME280;59604;52.138;5.446;2022-11-15T08:20:26;100927.97;;;9.40;100.00
71768;BME280;59604;52.138;5.446;2022-11-15T08:22:52;100920.72;;;9.42;100.00
71768;BME280;59604;52.138;5.446;2022-11-15T08:25:19;100931.22;;;9.42;100.00
71768;BME280;59604;52.138;5.446;2022-11-15T08:27:45;100935.78;;;9.48;100.00
71768;BME280;59604;52.138;5.446;2022-11-15T08:30:12;100932.63;;;9.53;100.00
71768;BME280;59604;52.138;5.446;2022-11-15T08:32:39;100932.25;;;9.56;100.00
71768;BME280;59604;52.138;5.446;2022-11-15T08:35:06;100924.84;;;9.59;100.00
71768;BME280;59604;52.138;5.446;2022-11-15T08:37:33;100920.22;;;9.61;100.00
71768;BME280;59604;52.138;5.446;2022-11-15T08:39:59;100922.00;;;9.61;100.00
71768;BME280;59604;52.138;5.446;2022-11-15T08:42:26;100922.84;;;9.61;100.00
71768;BME280;59604;52.138;5.446;2022-11-15T08:44:52;100911.94;;;9.64;100.00
71768;BME280;59604;52.138;5.446;2022-11-15T08:47:19;100905.53;;;9.67;100.00
71768;BME280;59604;52.138;5.446;2022-11-15T08:49:45;100904.34;;;9.70;100.00
71768;BME280;59604;52.138;5.446;2022-11-15T08:52:13;100899.09;;;9.70;100.00
71768;BME280;59604;52.138;5.446;2022-11-15T08:54:40;100902.00;;;9.75;100.00
71768;BME280;59604;52.138;5.446;2022-11-15T08:57:06;100893.19;;;9.82;100.00
71768;BME280;59604;52.138;5.446;2022-11-15T08:59:33;100893.47;;;9.87;100.00
71768;BME280;59604;52.138;5.446;2022-11-15T09:01:59;100901.44;;;9.94;100.00
71768;BME280;59604;52.138;5.446;2022-11-15T09:04:26;100891.66;;;10.03;100.00
71768;BME280;59604;52.138;5.446;2022-11-15T09:06:52;100890.94;;;10.09;100.00
71768;BME280;59604;52.138;5.446;2022-11-15T09:09:19;100895.44;;;10.15;100.00
71768;BME280;59604;52.138;5.446;2022-11-15T09:11:45;100900.16;;;10.20;100.00
71768;BME280;59604;52.138;5.446;2022-11-15T09:14:13;100897.63;;;10.26;100.00
71768;BME280;59604;52.138;5.446;2022-11-15T09:16:40;100897.53;;;10.34;100.00
71768;BME280;59604;52.138;5.446;2022-11-15T09:19:06;100900.88;;;10.43;100.00
71768;BME280;59604;52.138;5.446;2022-11-15T09:21:37;100890.88;;;10.53;100.00
71768;BME280;59604;52.138;5.446;2022-11-15T09:24:04;100882.50;;;10.64;100.00
71768;BME280;59604;52.138;5.446;2022-11-15T09:26:30;100889.47;;;10.72;100.00
71768;BME280;59604;52.138;5.446;2022-11-15T09:28:57;100881.19;;;10.75;100.00
71768;BME280;59604;52.138;5.446;2022-11-15T09:31:23;100878.72;;;10.74;100.00
71768;BME280;59604;52.138;5.446;2022-11-15T09:33:51;100885.25;;;10.78;100.00
71768;BME280;59604;52.138;5.446;2022-11-15T09:36:17;100893.16;;;10.78;100.00
71768;BME280;59604;52.138;5.446;2022-11-15T09:38:44;100885.81;;;10.73;100.00
71768;BME280;59604;52.138;5.446;2022-11-15T09:49:31;100874.88;;;10.55;100.00
71768;BME280;59604;52.138;5.446;2022-11-15T09:51:58;100875.97;;;10.60;100.00
71768;BME280;59604;52.138;5.446;2022-11-15T09:54:29;100871.75;;;10.66;100.00
71768;BME280;59604;52.138;5.446;2022-11-15T10:00:04;100867.31;;;10.88;100.00
71768;BME280;59604;52.138;5.446;2022-11-15T10:05:46;100868.47;;;11.07;100.00
71768;BME280;59604;52.138;5.446;2022-11-15T10:08:25;100865.03;;;11.06;100.00
71768;BME280;59604;52.138;5.446;2022-11-15T10:10:59;100861.22;;;11.09;100.00
71768;BME280;59604;52.138;5.446;2022-11-15T10:13:47;100857.13;;;11.06;100.00
71768;BME280;59604;52.138;5.446;2022-11-15T10:24:34;100859.25;;;11.18;100.00
71768;BME280;59604;52.138;5.446;2022-11-15T10:27:08;100858.22;;;11.19;100.00
71768;BME280;59604;52.138;5.446;2022-11-15T10:29:36;100849.19;;;11.28;100.00
71768;BME280;59604;52.138;5.446;2022-11-15T10:32:02;100850.22;;;11.33;99.42
71768;BME280;59604;52.138;5.446;2022-11-15T10:34:35;100850.22;;;11.33;98.20
71768;BME280;59604;52.138;5.446;2022-11-15T10:37:02;100840.63;;;11.26;97.53
71768;BME280;59604;52.138;5.446;2022-11-15T10:39:29;100841.66;;;11.25;98.36
71768;BME280;59604;52.138;5.446;2022-11-15T10:41:55;100836.19;;;11.26;97.90
71768;BME280;59604;52.138;5.446;2022-11-15T10:44:31;100830.09;;;11.26;96.40
71768;BME280;59604;52.138;5.446;2022-11-15T10:49:26;100823.78;;;11.20;95.98
71768;BME280;59604;52.138;5.446;2022-11-15T10:51:59;100823.56;;;11.22;96.08
71768;BME280;59604;52.138;5.446;2022-11-15T10:54:42;100816.84;;;11.19;95.77
71768;BME280;59604;52.138;5.446;2022-11-15T10:57:22;100808.78;;;11.21;96.22
71768;BME280;59604;52.138;5.446;2022-11-15T10:59:52;100803.94;;;11.24;95.56
71768;BME280;59604;52.138;5.446;2022-11-15T11:02:37;100799.84;;;11.22;94.29
71768;BME280;59604;52.138;5.446;2022-11-15T11:05:07;100799.69;;;11.30;93.98
71768;BME280;59604;52.138;5.446;2022-11-15T11:10:58;100783.66;;;11.25;94.33
71768;BME280;59604;52.138;5.446;2022-11-15T11:13:34;100780.50;;;11.43;93.92
71768;BME280;59604;52.138;5.446;2022-11-15T11:21:34;100789.06;;;11.51;92.49
71768;BME280;59604;52.138;5.446;2022-11-15T11:24:15;100787.03;;;11.47;91.99
71768;BME280;59604;52.138;5.446;2022-11-15T11:30:14;100779.63;;;11.64;90.65
71768;BME280;59604;52.138;5.446;2022-11-15T11:33:20;100775.06;;;11.51;90.17
71768;BME280;59604;52.138;5.446;2022-11-15T11:36:25;100780.69;;;11.41;90.75
71768;BME280;59604;52.138;5.446;2022-11-15T11:38:57;100779.88;;;11.41;90.85
71768;BME280;59604;52.138;5.446;2022-11-15T11:41:44;100775.63;;;11.40;90.11
71768;BME280;59604;52.138;5.446;2022-11-15T11:47:23;100764.31;;;11.46;89.42
71768;BME280;59604;52.138;5.446;2022-11-15T11:49:56;100759.59;;;11.41;89.66
71768;BME280;59604;52.138;5.446;2022-11-15T11:52:30;100764.09;;;11.47;89.82
71768;BME280;59604;52.138;5.446;2022-11-15T12:00:12;100743.72;;;11.76;88.54
71768;BME280;59604;52.138;5.446;2022-11-15T12:10:54;100723.94;;;11.93;86.81
71768;BME280;59604;52.138;5.446;2022-11-15T12:13:26;100724.72;;;11.94;86.16
71768;BME280;59604;52.138;5.446;2022-11-15T12:16:28;100714.97;;;11.88;85.12
71768;BME280;59604;52.138;5.446;2022-11-15T12:18:57;100714.53;;;11.84;85.14
71768;BME280;59604;52.138;5.446;2022-11-15T12:24:05;100698.91;;;11.82;84.02
71768;BME280;59604;52.138;5.446;2022-11-15T12:26:38;100695.44;;;11.82;83.79
71768;BME280;59604;52.138;5.446;2022-11-15T12:29:15;100691.97;;;11.81;84.92
71768;BME280;59604;52.138;5.446;2022-11-15T12:31:47;100681.22;;;11.83;84.11
71768;BME280;59604;52.138;5.446;2022-11-15T12:36:50;100675.78;;;11.84;83.35
71768;BME280;59604;52.138;5.446;2022-11-15T12:39:17;100674.75;;;11.85;82.05
71768;BME280;59604;52.138;5.446;2022-11-15T12:52:03;100643.72;;;12.07;81.36
71768;BME280;59604;52.138;5.446;2022-11-15T13:02:37;100626.25;;;12.06;79.26
71768;BME280;59604;52.138;5.446;2022-11-15T13:17:53;100603.69;;;12.04;79.43
71768;BME280;59604;52.138;5.446;2022-11-15T13:20:22;100604.94;;;12.01;80.44
71768;BME280;59604;52.138;5.446;2022-11-15T13:23:14;100594.56;;;12.00;80.16
71768;BME280;59604;52.138;5.446;2022-11-15T13:25:52;100593.16;;;11.97;79.65
71768;BME280;59604;52.138;5.446;2022-11-15T13:28:31;100593.34;;;11.89;79.10
71768;BME280;59604;52.138;5.446;2022-11-15T13:31:13;100593.97;;;11.84;79.10
71768;BME280;59604;52.138;5.446;2022-11-15T13:33:40;100587.66;;;11.79;79.97
71768;BME280;59604;52.138;5.446;2022-11-15T13:36:13;100585.59;;;11.74;80.37
71768;BME280;59604;52.138;5.446;2022-11-15T13:38:42;100581.53;;;11.72;80.75
71768;BME280;59604;52.138;5.446;2022-11-15T13:41:21;100572.81;;;11.65;80.43
71768;BME280;59604;52.138;5.446;2022-11-15T13:43:50;100569.94;;;11.59;80.80
71768;BME280;59604;52.138;5.446;2022-11-15T13:48:58;100562.84;;;11.47;81.29
71768;BME280;59604;52.138;5.446;2022-11-15T13:56:44;100550.63;;;11.32;81.14
71768;BME280;59604;52.138;5.446;2022-11-15T13:59:55;100547.16;;;11.25;81.67
71768;BME280;59604;52.138;5.446;2022-11-15T14:02:19;100551.00;;;11.23;81.19
71768;BME280;59604;52.138;5.446;2022-11-15T14:04:50;100545.13;;;11.21;81.39
71768;BME280;59604;52.138;5.446;2022-11-15T14:07:20;100542.88;;;11.18;80.86
71768;BME280;59604;52.138;5.446;2022-11-15T14:09:47;100544.91;;;11.16;80.94
71768;BME280;59604;52.138;5.446;2022-11-15T14:14:53;100530.91;;;11.08;81.17
71768;BME280;59604;52.138;5.446;2022-11-15T14:17:41;100527.88;;;11.05;81.16
71768;BME280;59604;52.138;5.446;2022-11-15T14:20:37;100518.69;;;11.01;81.39
71768;BME280;59604;52.138;5.446;2022-11-15T14:23:18;100534.50;;;11.01;81.61
71768;BME280;59604;52.138;5.446;2022-11-15T14:25:56;100512.63;;;11.00;81.80
71768;BME280;59604;52.138;5.446;2022-11-15T14:30:52;100506.16;;;11.03;81.87
71768;BME280;59604;52.138;5.446;2022-11-15T14:35:51;100496.22;;;11.05;81.41
71768;BME280;59604;52.138;5.446;2022-11-15T14:38:18;100499.47;;;11.07;81.59
71768;BME280;59604;52.138;5.446;2022-11-15T14:40:45;100488.91;;;11.07;81.26
71768;BME280;59604;52.138;5.446;2022-11-15T14:43:12;100493.59;;;11.05;80.39
71768;BME280;59604;52.138;5.446;2022-11-15T14:45:39;100492.38;;;11.07;80.93
71768;BME280;59604;52.138;5.446;2022-11-15T14:48:06;100481.81;;;11.07;81.14
71768;BME280;59604;52.138;5.446;2022-11-15T14:50:33;100471.28;;;11.07;80.45
71768;BME280;59604;52.138;5.446;2022-11-15T14:53:00;100477.34;;;11.08;81.26
71768;BME280;59604;52.138;5.446;2022-11-15T14:55:29;100465.41;;;11.05;80.30
71768;BME280;59604;52.138;5.446;2022-11-15T14:57:58;100465.19;;;11.07;80.20
71768;BME280;59604;52.138;5.446;2022-11-15T15:00:25;100463.59;;;11.06;79.88
71768;BME280;59604;52.138;5.446;2022-11-15T15:02:59;100449.78;;;11.04;79.91
71768;BME280;59604;52.138;5.446;2022-11-15T15:05:31;100454.06;;;11.05;80.46
71768;BME280;59604;52.138;5.446;2022-11-15T15:07:59;100449.78;;;11.04;80.14
71768;BME280;59604;52.138;5.446;2022-11-15T15:10:37;100443.69;;;11.03;79.65
71768;BME280;59604;52.138;5.446;2022-11-15T15:15:43;100432.16;;;10.98;80.27
71768;BME280;59604;52.138;5.446;2022-11-15T15:18:09;100429.69;;;10.96;80.39
71768;BME280;59604;52.138;5.446;2022-11-15T15:20:39;100422.00;;;10.95;79.64
71768;BME280;59604;52.138;5.446;2022-11-15T15:23:15;100426.47;;;10.94;79.68
71768;BME280;59604;52.138;5.446;2022-11-15T15:25:42;100414.72;;;10.90;79.38
71768;BME280;59604;52.138;5.446;2022-11-15T15:28:09;100410.44;;;10.89;79.94
71768;BME280;59604;52.138;5.446;2022-11-15T15:30:36;100408.19;;;10.86;79.91